sensor_id;sensor_type;location;lat;lon;timestamp;temperature;humidity
39983;DHT22;25670;44.782;10.356;2022-11-09T00:00:32;11.50;99.90
39983;DHT22;25670;44.782;10.356;2022-11-09T00:02:58;11.60;99.90
39983;DHT22;25670;44.782;10.356;2022-11-09T00:05:24;11.60;99.90
39983;DHT22;25670;44.782;10.356;2022-11-09T00:07:51;12.00;99.90
39983;DHT22;25670;44.782;10.356;2022-11-09T00:10:17;11.70;99.90
39983;DHT22;25670;44.782;10.356;2022-11-09T00:12:43;11.70;99.90
39983;DHT22;25670;44.782;10.356;2022-11-09T00:15:10;11.70;99.90
39983;DHT22;25670;44.782;10.356;2022-11-09T00:17:36;11.80;99.90
39983;DHT22;25670;44.782;10.356;2022-11-09T00:20:03;11.80;99.90
39983;DHT22;25670;44.782;10.356;2022-11-09T00:22:29;11.70;99.90
39983;DHT22;25670;44.782;10.356;2022-11-09T00:24:55;11.70;99.90
39983;DHT22;25670;44.782;10.356;2022-11-09T00:27:22;11.70;99.90
39983;DHT22;25670;44.782;10.356;2022-11-09T00:29:49;11.90;99.90
39983;DHT22;25670;44.782;10.356;2022-11-09T00:32:17;11.80;99.90
39983;DHT22;25670;44.782;10.356;2022-11-09T00:34:44;11.80;99.90
39983;DHT22;25670;44.782;10.356;2022-11-09T00:37:10;11.70;99.90
39983;DHT22;25670;44.782;10.356;2022-11-09T00:42:04;11.90;99.90
39983;DHT22;25670;44.782;10.356;2022-11-09T00:44:32;12.00;99.90
39983;DHT22;25670;44.782;10.356;2022-11-09T00:46:58;12.00;99.90
39983;DHT22;25670;44.782;10.356;2022-11-09T00:49:24;12.00;99.90
39983;DHT22;25670;44.782;10.356;2022-11-09T00:51:51;12.70;99.90
39983;DHT22;25670;44.782;10.356;2022-11-09T00:54:17;11.90;99.90
39983;DHT22;25670;44.782;10.356;2022-11-09T00:56:43;11.90;99.90
39983;DHT22;25670;44.782;10.356;2022-11-09T00:59:10;11.90;99.90
39983;DHT22;25670;44.782;10.356;2022-11-09T01:01:38;11.80;99.90
39983;DHT22;25670;44.782;10.356;2022-11-09T01:04:04;11.70;99.90
39983;DHT22;25670;44.782;10.356;2022-11-09T01:06:32;12.00;99.90
39983;DHT22;25670;44.782;10.356;2022-11-09T01:08:58;11.70;99.90
39983;DHT22;25670;44.782;10.356;2022-11-09T01:11:25;11.80;99.90
39983;DHT22;25670;44.782;10.356;2022-11-09T01:13:52;11.90;99.90
39983;DHT22;25670;44.782;10.356;2022-11-09T01:16:21;11.90;99.90
39983;DHT22;25670;44.782;10.356;2022-11-09T01:18:52;11.80;99.90
39983;DHT22;25670;44.782;10.356;2022-11-09T01:21:18;11.80;99.90
39983;DHT22;25670;44.782;10.356;2022-11-09T01:23:45;11.80;99.90
39983;DHT22;25670;44.782;10.356;2022-11-09T01:26:13;11.60;99.90
39983;DHT22;25670;44.782;10.356;2022-11-09T01:28:40;11.90;99.90
39983;DHT22;25670;44.782;10.356;2022-11-09T01:31:13;11.90;99.90
39983;DHT22;25670;44.782;10.356;2022-11-09T01:33:39;12.00;99.90
39983;DHT22;25670;44.782;10.356;2022-11-09T01:36:24;12.20;99.90
39983;DHT22;25670;44.782;10.356;2022-11-09T01:38:50;12.20;99.90
39983;DHT22;25670;44.782;10.356;2022-11-09T01:41:21;12.20;99.90
39983;DHT22;25670;44.782;10.356;2022-11-09T01:44:09;12.20;99.90
39983;DHT22;25670;44.782;10.356;2022-11-09T01:46:47;12.30;99.90
39983;DHT22;25670;44.782;10.356;2022-11-09T01:52:33;12.30;99.90
39983;DHT22;25670;44.782;10.356;2022-11-09T01:55:07;12.30;99.90
39983;DHT22;25670;44.782;10.356;2022-11-09T01:57:41;12.30;99.90
39983;DHT22;25670;44.782;10.356;2022-11-09T02:00:13;12.30;99.90
39983;DHT22;25670;44.782;10.356;2022-11-09T02:02:43;12.20;99.90
39983;DHT22;25670;44.782;10.356;2022-11-09T02:05:15;12.30;99.90
39983;DHT22;25670;44.782;10.356;2022-11-09T02:10:17;12.50;99.90
39983;DHT22;25670;44.782;10.356;2022-11-09T02:12:44;12.40;99.90
39983;DHT22;25670;44.782;10.356;2022-11-09T02:15:11;12.40;99.90
39983;DHT22;25670;44.782;10.356;2022-11-09T02:17:38;12.90;99.90
39983;DHT22;25670;44.782;10.356;2022-11-09T02:20:11;12.30;99.90
39983;DHT22;25670;44.782;10.356;2022-11-09T02:22:37;12.40;99.90
39983;DHT22;25670;44.782;10.356;2022-11-09T02:25:04;12.50;99.90
39983;DHT22;25670;44.782;10.356;2022-11-09T02:27:31;12.50;99.90
39983;DHT22;25670;44.782;10.356;2022-11-09T02:29:58;12.20;99.90
39983;DHT22;25670;44.782;10.356;2022-11-09T02:32:28;12.30;99.90
39983;DHT22;25670;44.782;10.356;2022-11-09T02:34:56;12.40;99.90
39983;DHT22;25670;44.782;10.356;2022-11-09T02:37:34;12.30;99.90
39983;DHT22;25670;44.782;10.356;2022-11-09T02:40:07;13.00;99.90
39983;DHT22;25670;44.782;10.356;2022-11-09T02:45:01;12.30;99.90
39983;DHT22;25670;44.782;10.356;2022-11-09T02:47:27;12.30;99.90
39983;DHT22;25670;44.782;10.356;2022-11-09T02:49:53;12.30;99.90
39983;DHT22;25670;44.782;10.356;2022-11-09T02:52:23;12.20;99.90
39983;DHT22;25670;44.782;10.356;2022-11-09T02:54:50;12.20;99.90
39983;DHT22;25670;44.782;10.356;2022-11-09T02:57:17;12.20;99.90
39983;DHT22;25670;44.782;10.356;2022-11-09T02:59:43;12.30;99.90
39983;DHT22;25670;44.782;10.356;2022-11-09T03:02:10;12.50;99.90
39983;DHT22;25670;44.782;10.356;2022-11-09T03:04:37;12.20;99.90
39983;DHT22;25670;44.782;10.356;2022-11-09T03:07:04;12.40;99.90
39983;DHT22;25670;44.782;10.356;2022-11-09T03:09:30;12.40;99.90
39983;DHT22;25670;44.782;10.356;2022-11-09T03:11:58;12.40;99.90
39983;DHT22;25670;44.782;10.356;2022-11-09T03:14:24;12.40;99.90
39983;DHT22;25670;44.782;10.356;2022-11-09T03:16:54;12.40;99.90
39983;DHT22;25670;44.782;10.356;2022-11-09T03:19:21;12.50;99.90
39983;DHT22;25670;44.782;10.356;2022-11-09T03:21:50;12.40;99.90
39983;DHT22;25670;44.782;10.356;2022-11-09T03:24:21;12.40;99.90
39983;DHT22;25670;44.782;10.356;2022-11-09T03:26:49;12.30;99.90
39983;DHT22;25670;44.782;10.356;2022-11-09T03:29:15;12.30;99.90
39983;DHT22;25670;44.782;10.356;2022-11-09T03:31:41;12.30;99.90
39983;DHT22;25670;44.782;10.356;2022-11-09T03:34:09;12.50;99.90
39983;DHT22;25670;44.782;10.356;2022-11-09T03:36:35;12.10;99.90
39983;DHT22;25670;44.782;10.356;2022-11-09T03:39:02;12.30;99.90
39983;DHT22;25670;44.782;10.356;2022-11-09T03:41:28;12.30;99.90
39983;DHT22;25670;44.782;10.356;2022-11-09T03:43:55;12.20;99.90
39983;DHT22;25670;44.782;10.356;2022-11-09T03:46:21;12.10;99.90
39983;DHT22;25670;44.782;10.356;2022-11-09T03:48:47;12.20;99.90
39983;DHT22;25670;44.782;10.356;2022-11-09T03:51:13;12.20;99.90
39983;DHT22;25670;44.782;10.356;2022-11-09T03:58:33;12.10;99.90
39983;DHT22;25670;44.782;10.356;2022-11-09T04:00:59;12.00;99.90
39983;DHT22;25670;44.782;10.356;2022-11-09T04:03:25;12.00;99.90
39983;DHT22;25670;44.782;10.356;2022-11-09T04:05:51;11.90;99.90
39983;DHT22;25670;44.782;10.356;2022-11-09T04:08:18;11.90;99.90
39983;DHT22;25670;44.782;10.356;2022-11-09T04:10:44;11.90;99.90
39983;DHT22;25670;44.782;10.356;2022-11-09T04:13:10;11.90;99.90
39983;DHT22;25670;44.782;10.356;2022-11-09T04:15:36;12.00;99.90
39983;DHT22;25670;44.782;10.356;2022-11-09T04:18:03;12.00;99.90
39983;DHT22;25670;44.782;10.356;2022-11-09T04:20:30;11.90;99.90
39983;DHT22;25670;44.782;10.356;2022-11-09T04:22:59;11.90;99.90
39983;DHT22;25670;44.782;10.356;2022-11-09T04:25:27;12.10;99.90
39983;DHT22;25670;44.782;10.356;2022-11-09T04:27:57;12.10;99.90
39983;DHT22;25670;44.782;10.356;2022-11-09T04:30:25;12.00;99.90
39983;DHT22;25670;44.782;10.356;2022-11-09T04:32:56;12.00;99.90
39983;DHT22;25670;44.782;10.356;2022-11-09T04:35:23;11.90;99.90
39983;DHT22;25670;44.782;10.356;2022-11-09T04:37:54;11.90;99.90
39983;DHT22;25670;44.782;10.356;2022-11-09T04:40:22;11.90;99.90
39983;DHT22;25670;44.782;10.356;2022-11-09T04:42:48;11.90;99.90
39983;DHT22;25670;44.782;10.356;2022-11-09T04:45:15;11.90;99.90
39983;DHT22;25670;44.782;10.356;2022-11-09T04:47:41;11.90;99.90
39983;DHT22;25670;44.782;10.356;2022-11-09T04:50:08;12.00;99.90
39983;DHT22;25670;44.782;10.356;2022-11-09T04:52:34;12.00;99.90
39983;DHT22;25670;44.782;10.356;2022-11-09T04:55:00;11.90;99.90
39983;DHT22;25670;44.782;10.356;2022-11-09T04:57:27;11.90;99.90
39983;DHT22;25670;44.782;10.356;2022-11-09T04:59:53;11.90;99.90
39983;DHT22;25670;44.782;10.356;2022-11-09T05:02:19;11.80;99.90
39983;DHT22;25670;44.782;10.356;2022-11-09T05:04:45;11.90;99.90
39983;DHT22;25670;44.782;10.356;2022-11-09T05:07:12;11.90;99.90
39983;DHT22;25670;44.782;10.356;2022-11-09T05:09:38;11.80;99.90
39983;DHT22;25670;44.782;10.356;2022-11-09T05:12:04;11.70;99.90
39983;DHT22;25670;44.782;10.356;2022-11-09T05:14:31;9.50;99.90
39983;DHT22;25670;44.782;10.356;2022-11-09T05:16:57;11.70;99.90
39983;DHT22;25670;44.782;10.356;2022-11-09T05:19:23;11.70;99.90
39983;DHT22;25670;44.782;10.356;2022-11-09T05:21:49;11.70;99.90
39983;DHT22;25670;44.782;10.356;2022-11-09T05:24:16;11.70;99.90
39983;DHT22;25670;44.782;10.356;2022-11-09T05:26:42;11.80;99.90
39983;DHT22;25670;44.782;10.356;2022-11-09T05:29:12;11.80;99.90
39983;DHT22;25670;44.782;10.356;2022-11-09T05:31:39;11.80;99.90
39983;DHT22;25670;44.782;10.356;2022-11-09T05:34:06;11.70;99.90
39983;DHT22;25670;44.782;10.356;2022-11-09T05:38:59;11.80;99.90
39983;DHT22;25670;44.782;10.356;2022-11-09T05:41:26;11.70;99.90
39983;DHT22;25670;44.782;10.356;2022-11-09T05:43:52;11.70;99.90
39983;DHT22;25670;44.782;10.356;2022-11-09T05:46:18;11.70;99.90
39983;DHT22;25670;44.782;10.356;2022-11-09T05:48:45;11.70;99.90
39983;DHT22;25670;44.782;10.356;2022-11-09T05:51:13;11.70;99.90
39983;DHT22;25670;44.782;10.356;2022-11-09T05:53:40;11.60;99.90
39983;DHT22;25670;44.782;10.356;2022-11-09T05:56:09;11.60;99.90
39983;DHT22;25670;44.782;10.356;2022-11-09T05:58:37;11.70;99.90
39983;DHT22;25670;44.782;10.356;2022-11-09T06:01:11;11.60;99.90
39983;DHT22;25670;44.782;10.356;2022-11-09T06:03:38;11.60;99.90
39983;DHT22;25670;44.782;10.356;2022-11-09T06:06:07;11.80;99.90
39983;DHT22;25670;44.782;10.356;2022-11-09T06:08:33;11.80;99.90
39983;DHT22;25670;44.782;10.356;2022-11-09T06:11:01;11.80;99.90
39983;DHT22;25670;44.782;10.356;2022-11-09T06:13:28;11.80;99.90
39983;DHT22;25670;44.782;10.356;2022-11-09T06:15:55;12.00;99.90
39983;DHT22;25670;44.782;10.356;2022-11-09T06:18:23;11.90;99.90
39983;DHT22;25670;44.782;10.356;2022-11-09T06:20:51;11.90;99.90
39983;DHT22;25670;44.782;10.356;2022-11-09T06:23:18;11.90;99.90
39983;DHT22;25670;44.782;10.356;2022-11-09T06:30:37;11.80;99.90
39983;DHT22;25670;44.782;10.356;2022-11-09T06:33:03;11.80;99.90
39983;DHT22;25670;44.782;10.356;2022-11-09T06:35:30;11.80;99.90
39983;DHT22;25670;44.782;10.356;2022-11-09T06:37:59;11.80;99.90
39983;DHT22;25670;44.782;10.356;2022-11-09T06:40:26;11.90;99.90
39983;DHT22;25670;44.782;10.356;2022-11-09T06:42:56;11.90;99.90
39983;DHT22;25670;44.782;10.356;2022-11-09T06:45:23;11.90;99.90
39983;DHT22;25670;44.782;10.356;2022-11-09T06:47:50;11.90;99.90
39983;DHT22;25670;44.782;10.356;2022-11-09T06:50:16;11.90;99.90
39983;DHT22;25670;44.782;10.356;2022-11-09T06:52:42;11.90;99.90
39983;DHT22;25670;44.782;10.356;2022-11-09T06:55:08;11.90;99.90
39983;DHT22;25670;44.782;10.356;2022-11-09T06:57:35;11.90;99.90
39983;DHT22;25670;44.782;10.356;2022-11-09T07:00:02;12.00;99.90
39983;DHT22;25670;44.782;10.356;2022-11-09T07:02:29;12.00;99.90
39983;DHT22;25670;44.782;10.356;2022-11-09T07:09:49;12.10;99.90
39983;DHT22;25670;44.782;10.356;2022-11-09T07:12:15;12.00;99.90
39983;DHT22;25670;44.782;10.356;2022-11-09T07:14:41;12.10;99.90
39983;DHT22;25670;44.782;10.356;2022-11-09T07:17:07;12.20;99.90
39983;DHT22;25670;44.782;10.356;2022-11-09T07:19:34;12.30;99.90
39983;DHT22;25670;44.782;10.356;2022-11-09T07:22:00;12.40;99.90
39983;DHT22;25670;44.782;10.356;2022-11-09T07:29:19;12.30;99.90
39983;DHT22;25670;44.782;10.356;2022-11-09T07:31:45;12.20;99.90
39983;DHT22;25670;44.782;10.356;2022-11-09T07:34:11;12.20;99.90
39983;DHT22;25670;44.782;10.356;2022-11-09T07:36:38;12.20;99.90
39983;DHT22;25670;44.782;10.356;2022-11-09T07:39:04;12.40;99.90
39983;DHT22;25670;44.782;10.356;2022-11-09T07:41:30;12.40;99.90
39983;DHT22;25670;44.782;10.356;2022-11-09T07:43:57;10.80;99.90
39983;DHT22;25670;44.782;10.356;2022-11-09T07:46:23;12.50;99.90
39983;DHT22;25670;44.782;10.356;2022-11-09T07:48:50;12.50;99.90
39983;DHT22;25670;44.782;10.356;2022-11-09T07:51:16;12.60;99.90
39983;DHT22;25670;44.782;10.356;2022-11-09T07:53:42;12.70;99.90
39983;DHT22;25670;44.782;10.356;2022-11-09T07:56:08;12.70;99.90
39983;DHT22;25670;44.782;10.356;2022-11-09T07:58:35;12.80;99.90
39983;DHT22;25670;44.782;10.356;2022-11-09T08:01:06;11.60;99.90
39983;DHT22;25670;44.782;10.356;2022-11-09T08:03:33;13.10;99.90
39983;DHT22;25670;44.782;10.356;2022-11-09T08:05:59;13.10;99.90
39983;DHT22;25670;44.782;10.356;2022-11-09T08:08:25;13.20;99.90
39983;DHT22;25670;44.782;10.356;2022-11-09T08:10:52;13.30;99.90
39983;DHT22;25670;44.782;10.356;2022-11-09T08:13:18;13.30;99.90
39983;DHT22;25670;44.782;10.356;2022-11-09T08:15:45;13.40;99.90
39983;DHT22;25670;44.782;10.356;2022-11-09T08:18:15;13.50;99.90
39983;DHT22;25670;44.782;10.356;2022-11-09T08:20:41;13.60;99.90
39983;DHT22;25670;44.782;10.356;2022-11-09T08:23:12;13.50;99.90
39983;DHT22;25670;44.782;10.356;2022-11-09T08:25:39;13.50;99.90
39983;DHT22;25670;44.782;10.356;2022-11-09T08:28:08;13.40;99.90
39983;DHT22;25670;44.782;10.356;2022-11-09T08:30:35;13.30;99.90
39983;DHT22;25670;44.782;10.356;2022-11-09T08:33:02;13.30;99.90
39983;DHT22;25670;44.782;10.356;2022-11-09T08:35:29;13.50;99.90
39983;DHT22;25670;44.782;10.356;2022-11-09T08:38:00;13.70;99.90
39983;DHT22;25670;44.782;10.356;2022-11-09T08:40:28;14.00;99.90
39983;DHT22;25670;44.782;10.356;2022-11-09T08:42:59;14.00;99.90
39983;DHT22;25670;44.782;10.356;2022-11-09T08:45:33;14.20;99.90
39983;DHT22;25670;44.782;10.356;2022-11-09T08:48:02;15.40;99.90
39983;DHT22;25670;44.782;10.356;2022-11-09T08:50:29;14.40;99.90
39983;DHT22;25670;44.782;10.356;2022-11-09T08:52:56;14.60;99.90
39983;DHT22;25670;44.782;10.356;2022-11-09T08:55:23;14.80;99.90
39983;DHT22;25670;44.782;10.356;2022-11-09T08:57:54;14.90;99.90
39983;DHT22;25670;44.782;10.356;2022-11-09T09:00:21;14.80;99.90
39983;DHT22;25670;44.782;10.356;2022-11-09T09:02:47;14.60;99.90
39983;DHT22;25670;44.782;10.356;2022-11-09T09:05:14;14.50;99.90
39983;DHT22;25670;44.782;10.356;2022-11-09T09:07:41;14.40;99.90
39983;DHT22;25670;44.782;10.356;2022-11-09T09:10:08;14.40;99.90
39983;DHT22;25670;44.782;10.356;2022-11-09T09:12:35;14.50;99.90
39983;DHT22;25670;44.782;10.356;2022-11-09T09:15:01;14.40;99.90
39983;DHT22;25670;44.782;10.356;2022-11-09T09:17:27;14.60;99.90
39983;DHT22;25670;44.782;10.356;2022-11-09T09:19:53;14.80;99.90
39983;DHT22;25670;44.782;10.356;2022-11-09T09:22:20;15.10;99.90
39983;DHT22;25670;44.782;10.356;2022-11-09T09:24:46;15.10;99.90
39983;DHT22;25670;44.782;10.356;2022-11-09T09:27:12;15.30;99.90
39983;DHT22;25670;44.782;10.356;2022-11-09T09:29:39;15.40;99.90
39983;DHT22;25670;44.782;10.356;2022-11-09T09:32:05;15.90;99.90
39983;DHT22;25670;44.782;10.356;2022-11-09T09:34:33;16.10;99.90
39983;DHT22;25670;44.782;10.356;2022-11-09T09:36:59;16.10;99.90
39983;DHT22;25670;44.782;10.356;2022-11-09T09:39:26;15.90;99.90
39983;DHT22;25670;44.782;10.356;2022-11-09T09:41:55;15.70;99.90
39983;DHT22;25670;44.782;10.356;2022-11-09T09:44:44;15.50;99.90
39983;DHT22;25670;44.782;10.356;2022-11-09T09:47:16;15.30;99.90
39983;DHT22;25670;44.782;10.356;2022-11-09T09:49:48;15.30;99.90
39983;DHT22;25670;44.782;10.356;2022-11-09T09:52:51;15.30;99.90
39983;DHT22;25670;44.782;10.356;2022-11-09T09:57:59;14.90;99.90
39983;DHT22;25670;44.782;10.356;2022-11-09T10:00:27;15.20;99.90
39983;DHT22;25670;44.782;10.356;2022-11-09T10:02:54;15.40;99.90
39983;DHT22;25670;44.782;10.356;2022-11-09T10:05:26;15.50;99.90
39983;DHT22;25670;44.782;10.356;2022-11-09T10:10:53;15.70;99.90
39983;DHT22;25670;44.782;10.356;2022-11-09T10:17:05;16.40;99.90
39983;DHT22;25670;44.782;10.356;2022-11-09T10:19:49;16.50;99.90
39983;DHT22;25670;44.782;10.356;2022-11-09T10:22:41;16.40;99.90
39983;DHT22;25670;44.782;10.356;2022-11-09T10:25:24;16.20;99.90
39983;DHT22;25670;44.782;10.356;2022-11-09T10:28:02;16.10;99.90
39983;DHT22;25670;44.782;10.356;2022-11-09T10:30:29;15.90;99.90
39983;DHT22;25670;44.782;10.356;2022-11-09T10:33:00;15.80;99.90
39983;DHT22;25670;44.782;10.356;2022-11-09T10:35:36;15.70;99.90
39983;DHT22;25670;44.782;10.356;2022-11-09T10:38:03;15.80;99.90
39983;DHT22;25670;44.782;10.356;2022-11-09T10:43:36;16.00;99.90
39983;DHT22;25670;44.782;10.356;2022-11-09T10:46:21;15.90;99.90
39983;DHT22;25670;44.782;10.356;2022-11-09T10:49:19;15.80;99.90
39983;DHT22;25670;44.782;10.356;2022-11-09T10:52:05;15.60;99.90
39983;DHT22;25670;44.782;10.356;2022-11-09T10:55:27;15.70;99.90
39983;DHT22;25670;44.782;10.356;2022-11-09T11:01:20;16.10;99.90
39983;DHT22;25670;44.782;10.356;2022-11-09T11:04:19;16.50;99.90
39983;DHT22;25670;44.782;10.356;2022-11-09T11:07:13;16.80;99.90
39983;DHT22;25670;44.782;10.356;2022-11-09T11:15:49;17.40;99.90
39983;DHT22;25670;44.782;10.356;2022-11-09T11:18:35;17.30;99.90
39983;DHT22;25670;44.782;10.356;2022-11-09T11:21:22;17.30;99.90
39983;DHT22;25670;44.782;10.356;2022-11-09T11:24:11;17.30;99.90
39983;DHT22;25670;44.782;10.356;2022-11-09T11:27:15;17.30;99.90
39983;DHT22;25670;44.782;10.356;2022-11-09T11:30:14;17.40;99.90
39983;DHT22;25670;44.782;10.356;2022-11-09T11:35:59;17.40;99.90
39983;DHT22;25670;44.782;10.356;2022-11-09T11:48:20;17.50;99.90
39983;DHT22;25670;44.782;10.356;2022-11-09T11:54:25;17.30;99.90
39983;DHT22;25670;44.782;10.356;2022-11-09T12:00:58;17.30;99.90
39983;DHT22;25670;44.782;10.356;2022-11-09T12:03:49;17.70;99.90
39983;DHT22;25670;44.782;10.356;2022-11-09T12:22:48;16.90;99.90
39983;DHT22;25670;44.782;10.356;2022-11-09T12:39:53;16.70;99.90
39983;DHT22;25670;44.782;10.356;2022-11-09T12:53:08;17.80;99.90
39983;DHT22;25670;44.782;10.356;2022-11-09T12:59:57;17.30;99.90
39983;DHT22;25670;44.782;10.356;2022-11-09T13:13:21;19.00;99.90
39983;DHT22;25670;44.782;10.356;2022-11-09T13:45:37;18.00;99.90
39983;DHT22;25670;44.782;10.356;2022-11-09T13:51:45;17.70;99.90
39983;DHT22;25670;44.782;10.356;2022-11-09T13:54:36;17.50;99.90
39983;DHT22;25670;44.782;10.356;2022-11-09T13:57:49;17.00;99.90
39983;DHT22;25670;44.782;10.356;2022-11-09T14:00:46;16.70;99.90
39983;DHT22;25670;44.782;10.356;2022-11-09T14:03:31;16.50;99.90
39983;DHT22;25670;44.782;10.356;2022-11-09T14:06:16;16.30;99.90
39983;DHT22;25670;44.782;10.356;2022-11-09T14:09:02;15.70;99.90
39983;DHT22;25670;44.782;10.356;2022-11-09T14:12:10;16.00;99.90
39983;DHT22;25670;44.782;10.356;2022-11-09T14:24:35;15.20;99.90
39983;DHT22;25670;44.782;10.356;2022-11-09T14:27:20;15.10;99.90
39983;DHT22;25670;44.782;10.356;2022-11-09T14:30:19;15.10;99.90
39983;DHT22;25670;44.782;10.356;2022-11-09T14:33:31;15.10;99.90
39983;DHT22;25670;44.782;10.356;2022-11-09T14:36:18;15.00;99.90
39983;DHT22;25670;44.782;10.356;2022-11-09T14:39:13;15.00;99.90
39983;DHT22;25670;44.782;10.356;2022-11-09T14:42:05;15.00;99.90
39983;DHT22;25670;44.782;10.356;2022-11-09T14:44:50;14.80;99.90
39983;DHT22;25670;44.782;10.356;2022-11-09T14:47:36;14.70;99.90
39983;DHT22;25670;44.782;10.356;2022-11-09T14:50:32;14.70;99.90
39983;DHT22;25670;44.782;10.356;2022-11-09T14:56:16;14.50;99.90
39983;DHT22;25670;44.782;10.356;2022-11-09T14:59:04;14.40;99.90
39983;DHT22;25670;44.782;10.356;2022-11-09T15:01:57;14.30;99.90
39983;DHT22;25670;44.782;10.356;2022-11-09T15:04:57;14.20;99.90
39983;DHT22;25670;44.782;10.356;2022-11-09T15:07:44;14.10;99.90
39983;DHT22;25670;44.782;10.356;2022-11-09T15:10:29;14.10;99.90
39983;DHT22;25670;44.782;10.356;2022-11-09T15:13:17;14.00;99.90
39983;DHT22;25670;44.782;10.356;2022-11-09T15:16:04;14.00;99.90
39983;DHT22;25670;44.782;10.356;2022-11-09T15:18:49;14.00;99.90
39983;DHT22;25670;44.782;10.356;2022-11-09T15:21:36;13.90;99.90
39983;DHT22;25670;44.782;10.356;2022-11-09T15:24:23;15.40;99.90
39983;DHT22;25670;44.782;10.356;2022-11-09T15:27:41;13.80;99.90
39983;DHT22;25670;44.782;10.356;2022-11-09T15:30:42;13.80;99.90
39983;DHT22;25670;44.782;10.356;2022-11-09T15:36:26;13.70;99.90
39983;DHT22;25670;44.782;10.356;2022-11-09T15:39:15;13.70;99.90
39983;DHT22;25670;44.782;10.356;2022-11-09T15:42:00;13.60;99.90
39983;DHT22;25670;44.782;10.356;2022-11-09T15:44:53;13.50;99.90
39983;DHT22;25670;44.782;10.356;2022-11-09T15:47:38;13.50;99.90
39983;DHT22;25670;44.782;10.356;2022-11-09T15:50:25;13.50;99.90
39983;DHT22;25670;44.782;10.356;2022-11-09T15:53:11;13.40;99.90
39983;DHT22;25670;44.782;10.356;2022-11-09T15:55:57;13.30;99.90
39983;DHT22;25670;44.782;10.356;2022-11-09T15:58:42;13.20;99.90
39983;DHT22;25670;44.782;10.356;2022-11-09T16:01:30;13.10;99.90
39983;DHT22;25670;44.782;10.356;2022-11-09T16:04:16;13.00;99.90
39983;DHT22;25670;44.782;10.356;2022-11-09T16:07:01;12.90;99.90
39983;DHT22;25670;44.782;10.356;2022-11-09T16:09:45;12.80;99.90
39983;DHT22;25670;44.782;10.356;2022-11-09T16:12:30;12.70;99.90
39983;DHT22;25670;44.782;10.356;2022-11-09T16:15:15;12.70;99.90
39983;DHT22;25670;44.782;10.356;2022-11-09T16:18:00;12.60;99.90
39983;DHT22;25670;44.782;10.356;2022-11-09T16:20:45;12.60;99.90
39983;DHT22;25670;44.782;10.356;2022-11-09T16:23:32;12.60;99.90
39983;DHT22;25670;44.782;10.356;2022-11-09T16:26:19;12.50;99.90
39983;DHT22;25670;44.782;10.356;2022-11-09T16:29:04;12.50;99.90
39983;DHT22;25670;44.782;10.356;2022-11-09T16:31:48;12.60;99.90
39983;DHT22;25670;44.782;10.356;2022-11-09T16:34:33;12.60;99.90
39983;DHT22;25670;44.782;10.356;2022-11-09T16:37:19;12.60;99.90
39983;DHT22;25670;44.782;10.356;2022-11-09T16:40:06;12.60;99.90
39983;DHT22;25670;44.782;10.356;2022-11-09T16:42:51;12.60;99.90
39983;DHT22;25670;44.782;10.356;2022-11-09T16:45:35;12.50;99.90
39983;DHT22;25670;44.782;10.356;2022-11-09T16:48:21;12.50;99.90
39983;DHT22;25670;44.782;10.356;2022-11-09T16:51:06;12.50;99.90
39983;DHT22;25670;44.782;10.356;2022-11-09T16:53:51;12.50;99.90
39983;DHT22;25670;44.782;10.356;2022-11-09T16:56:36;12.50;99.90
39983;DHT22;25670;44.782;10.356;2022-11-09T16:59:21;12.70;99.90
39983;DHT22;25670;44.782;10.356;2022-11-09T17:02:06;12.60;99.90
39983;DHT22;25670;44.782;10.356;2022-11-09T17:04:52;12.60;99.90
39983;DHT22;25670;44.782;10.356;2022-11-09T17:07:37;12.70;99.90
39983;DHT22;25670;44.782;10.356;2022-11-09T17:10:24;13.50;99.90
39983;DHT22;25670;44.782;10.356;2022-11-09T17:13:10;12.70;99.90
39983;DHT22;25670;44.782;10.356;2022-11-09T17:15:55;12.40;99.90
39983;DHT22;25670;44.782;10.356;2022-11-09T17:18:39;12.70;99.90
39983;DHT22;25670;44.782;10.356;2022-11-09T17:21:27;12.70;99.90
39983;DHT22;25670;44.782;10.356;2022-11-09T17:24:13;12.70;99.90
39983;DHT22;25670;44.782;10.356;2022-11-09T17:26:57;12.70;99.90
39983;DHT22;25670;44.782;10.356;2022-11-09T17:29:42;12.70;99.90
39983;DHT22;25670;44.782;10.356;2022-11-09T17:32:28;12.70;99.90
39983;DHT22;25670;44.782;10.356;2022-11-09T17:35:13;12.70;99.90
39983;DHT22;25670;44.782;10.356;2022-11-09T17:37:58;12.70;99.90
39983;DHT22;25670;44.782;10.356;2022-11-09T17:40:42;12.70;99.90
39983;DHT22;25670;44.782;10.356;2022-11-09T17:43:29;12.70;99.90
39983;DHT22;25670;44.782;10.356;2022-11-09T17:46:17;12.70;99.90
39983;DHT22;25670;44.782;10.356;2022-11-09T17:49:01;12.70;99.90
39983;DHT22;25670;44.782;10.356;2022-11-09T17:51:47;12.70;99.90
39983;DHT22;25670;44.782;10.356;2022-11-09T17:54:31;12.70;99.90
39983;DHT22;25670;44.782;10.356;2022-11-09T17:57:16;12.60;99.90
39983;DHT22;25670;44.782;10.356;2022-11-09T18:00:00;12.70;99.90
39983;DHT22;25670;44.782;10.356;2022-11-09T18:02:45;12.70;99.90
39983;DHT22;25670;44.782;10.356;2022-11-09T18:05:30;12.70;99.90
39983;DHT22;25670;44.782;10.356;2022-11-09T18:08:14;12.60;99.90
39983;DHT22;25670;44.782;10.356;2022-11-09T18:10:59;12.60;99.90
39983;DHT22;25670;44.782;10.356;2022-11-09T18:13:44;12.60;99.90
39983;DHT22;25670;44.782;10.356;2022-11-09T18:16:29;12.60;99.90
39983;DHT22;25670;44.782;10.356;2022-11-09T18:19:15;12.60;99.90
39983;DHT22;25670;44.782;10.356;2022-11-09T18:21:59;12.60;99.90
39983;DHT22;25670;44.782;10.356;2022-11-09T18:24:43;12.60;99.90
39983;DHT22;25670;44.782;10.356;2022-11-09T18:27:28;12.60;99.90
39983;DHT22;25670;44.782;10.356;2022-11-09T18:30:15;12.50;99.90
39983;DHT22;25670;44.782;10.356;2022-11-09T18:33:00;12.60;99.90
39983;DHT22;25670;44.782;10.356;2022-11-09T18:35:54;12.60;99.90
39983;DHT22;25670;44.782;10.356;2022-11-09T18:38:40;12.50;99.90
39983;DHT22;25670;44.782;10.356;2022-11-09T18:41:25;12.50;99.90
39983;DHT22;25670;44.782;10.356;2022-11-09T18:44:10;12.50;99.90
39983;DHT22;25670;44.782;10.356;2022-11-09T18:46:55;12.50;99.90
39983;DHT22;25670;44.782;10.356;2022-11-09T18:49:39;12.50;99.90
39983;DHT22;25670;44.782;10.356;2022-11-09T18:52:24;12.60;99.90
39983;DHT22;25670;44.782;10.356;2022-11-09T18:55:10;12.60;99.90
39983;DHT22;25670;44.782;10.356;2022-11-09T18:57:55;12.50;99.90
39983;DHT22;25670;44.782;10.356;2022-11-09T19:00:40;12.50;99.90